createdAt,value
2023-03-24T00:00:24.067Z,6.70
2023-03-24T00:02:56.812Z,5.90
2023-03-24T00:05:28.606Z,6.10
2023-03-24T00:08:02.068Z,5.50
2023-03-24T00:10:35.024Z,6.40
2023-03-24T00:13:07.201Z,6.20
2023-03-24T00:15:38.548Z,5.70
2023-03-24T00:18:10.929Z,5.80
2023-03-24T00:20:42.479Z,6.30
2023-03-24T00:23:14.127Z,6.50
2023-03-24T00:25:45.406Z,6.40
2023-03-24T00:28:16.357Z,6.20
2023-03-24T00:30:52.997Z,6.30
2023-03-24T00:33:25.434Z,6.10
2023-03-24T00:35:57.990Z,6.60
2023-03-24T00:38:29.907Z,6.60
2023-03-24T00:41:01.085Z,6.50
2023-03-24T00:43:32.959Z,7.10
2023-03-24T00:46:06.053Z,7.80
2023-03-24T00:48:38.767Z,6.80
2023-03-24T00:51:11.169Z,6.80
2023-03-24T00:53:43.675Z,7.20
2023-03-24T00:56:15.657Z,7.50
2023-03-24T00:58:46.761Z,7.00
2023-03-24T01:01:17.734Z,7.10
2023-03-24T01:03:50.899Z,6.80
2023-03-24T01:06:23.800Z,7.10
2023-03-24T01:08:56.040Z,8.00
2023-03-24T01:11:28.528Z,6.80
2023-03-24T01:13:59.793Z,7.20
2023-03-24T01:16:31.641Z,7.30
2023-03-24T01:19:02.668Z,7.60
2023-03-24T01:21:35.301Z,6.70
2023-03-24T01:24:07.940Z,6.90
2023-03-24T01:26:39.117Z,7.10
2023-03-24T01:29:10.110Z,6.60
2023-03-24T01:31:41.548Z,7.80
2023-03-24T01:34:12.694Z,7.20
2023-03-24T01:36:43.654Z,7.00
2023-03-24T01:39:14.908Z,7.30
2023-03-24T01:41:46.103Z,7.10
2023-03-24T01:44:33.557Z,7.20
2023-03-24T01:47:07.605Z,6.20
2023-03-24T01:49:43.288Z,6.30
2023-03-24T01:52:19.520Z,6.70
2023-03-24T01:54:53.129Z,6.40
2023-03-24T01:57:31.100Z,6.80
2023-03-24T02:00:08.426Z,6.10
2023-03-24T02:05:36.633Z,6.30
2023-03-24T02:08:13.795Z,6.40
2023-03-24T02:10:46.123Z,6.60
2023-03-24T02:13:17.502Z,6.30
2023-03-24T02:16:02.243Z,7.10
2023-03-24T02:18:45.007Z,7.10
2023-03-24T02:22:05.930Z,6.20
2023-03-24T02:25:11.057Z,5.60
2023-03-24T02:28:05.333Z,7.20
2023-03-24T02:31:24.993Z,5.90
2023-03-24T02:34:22.209Z,6.00
2023-03-24T02:37:27.653Z,6.30
2023-03-24T02:40:15.459Z,5.80
2023-03-24T02:43:01.638Z,6.40
2023-03-24T02:45:38.674Z,5.90
2023-03-24T02:48:24.742Z,6.60
2023-03-24T02:51:03.092Z,6.00
2023-03-24T02:53:41.331Z,6.20
2023-03-24T02:56:27.520Z,6.20
2023-03-24T02:59:04.190Z,6.10
2023-03-24T03:01:43.588Z,23.10
2023-03-24T03:04:34.328Z,26.70
2023-03-24T03:07:09.855Z,12.80
2023-03-24T03:09:44.844Z,7.70
2023-03-24T03:12:19.404Z,5.80
2023-03-24T03:14:54.208Z,6.50
2023-03-24T03:17:30.824Z,7.30
2023-03-24T03:20:08.405Z,32.60
2023-03-24T03:22:44.873Z,14.10
2023-03-24T03:25:23.317Z,8.00
2023-03-24T03:27:58.727Z,7.30
2023-03-24T03:30:37.765Z,6.20
2023-03-24T03:33:13.391Z,7.00
2023-03-24T03:35:48.870Z,6.60
2023-03-24T03:38:26.117Z,7.50
2023-03-24T03:40:59.926Z,7.10
2023-03-24T03:43:36.193Z,6.60
2023-03-24T03:46:08.522Z,6.40
2023-03-24T03:48:42.218Z,6.20
2023-03-24T03:51:14.614Z,6.50
2023-03-24T03:53:58.358Z,6.40
2023-03-24T03:56:32.533Z,6.60
2023-03-24T03:59:34.971Z,5.90
2023-03-24T04:02:26.996Z,5.60
2023-03-24T04:05:20.927Z,5.70
2023-03-24T04:08:15.601Z,6.30
2023-03-24T04:11:37.376Z,5.80
2023-03-24T04:14:37.871Z,19.70
2023-03-24T04:17:47.041Z,9.00
2023-03-24T04:20:32.750Z,6.00
2023-03-24T04:23:14.610Z,5.80
2023-03-24T04:25:56.917Z,6.40
2023-03-24T04:28:37.589Z,5.50
2023-03-24T04:31:17.939Z,6.90
2023-03-24T04:33:53.803Z,6.60
2023-03-24T04:36:32.121Z,6.30
2023-03-24T04:39:36.042Z,6.30
2023-03-24T04:42:12.796Z,6.40
2023-03-24T04:44:44.199Z,6.20
2023-03-24T04:47:46.965Z,6.80
2023-03-24T04:50:43.475Z,6.20
2023-03-24T04:53:20.639Z,6.70
2023-03-24T04:56:06.675Z,24.10
2023-03-24T04:58:56.777Z,16.70
2023-03-24T05:01:30.503Z,9.60
2023-03-24T05:04:24.434Z,7.10
2023-03-24T05:06:57.010Z,7.20
2023-03-24T05:09:31.771Z,7.30
2023-03-24T05:12:03.481Z,6.80
2023-03-24T05:14:39.692Z,6.80
2023-03-24T05:17:11.042Z,6.10
2023-03-24T05:19:44.143Z,16.40
2023-03-24T05:22:15.545Z,9.70
2023-03-24T05:24:46.797Z,7.90
2023-03-24T05:27:17.747Z,7.70
2023-03-24T05:29:48.859Z,7.00
2023-03-24T05:32:32.390Z,8.00
2023-03-24T05:35:03.450Z,8.20
2023-03-24T05:37:40.899Z,7.00
2023-03-24T05:40:13.914Z,7.20
2023-03-24T05:42:52.864Z,7.00
2023-03-24T05:45:31.059Z,8.00
2023-03-24T05:48:03.000Z,7.80
2023-03-24T05:50:48.040Z,8.50
2023-03-24T05:53:19.692Z,9.30
2023-03-24T05:56:12.919Z,16.80
2023-03-24T05:59:02.767Z,9.50
2023-03-24T06:01:57.328Z,8.20
2023-03-24T06:04:52.023Z,8.20
2023-03-24T06:07:28.352Z,8.70
2023-03-24T06:12:40.511Z,8.70
2023-03-24T06:15:17.610Z,9.20
2023-03-24T06:17:50.733Z,9.70
2023-03-24T06:20:29.950Z,11.00
2023-03-24T06:23:12.668Z,10.30
2023-03-24T06:26:01.776Z,10.90
2023-03-24T06:28:34.684Z,10.90
2023-03-24T06:31:18.760Z,10.10
2023-03-24T06:33:53.542Z,19.10
2023-03-24T06:36:25.875Z,11.60
2023-03-24T06:38:58.278Z,10.00
2023-03-24T06:41:29.842Z,10.30
2023-03-24T06:44:06.489Z,11.00
2023-03-24T06:46:37.825Z,9.20
2023-03-24T06:49:09.368Z,9.20
2023-03-24T06:51:40.567Z,9.40
2023-03-24T06:54:17.831Z,11.20
2023-03-24T06:56:49.031Z,9.90
2023-03-24T06:59:23.917Z,9.00
2023-03-24T07:01:55.769Z,10.10
2023-03-24T07:04:36.529Z,10.20
2023-03-24T07:07:52.700Z,9.60
2023-03-24T07:10:21.805Z,9.60
2023-03-24T07:12:53.774Z,10.70
2023-03-24T07:15:24.836Z,9.70
2023-03-24T07:17:56.345Z,9.70
2023-03-24T07:23:16.978Z,8.90
2023-03-24T07:26:08.895Z,9.40
2023-03-24T07:28:55.910Z,9.40
2023-03-24T07:31:41.119Z,9.00
2023-03-24T07:34:16.153Z,9.50
2023-03-24T07:36:52.424Z,9.50
2023-03-24T07:39:23.984Z,9.50
2023-03-24T07:41:55.347Z,9.10
2023-03-24T07:44:37.110Z,9.70
2023-03-24T07:47:11.470Z,8.80
2023-03-24T07:49:42.466Z,8.70
2023-03-24T07:52:15.138Z,7.50
2023-03-24T07:54:51.637Z,8.20
2023-03-24T07:57:43.705Z,9.20
2023-03-24T08:00:18.208Z,8.30
2023-03-24T08:03:00.352Z,7.40
2023-03-24T08:05:58.948Z,7.00
2023-03-24T08:08:50.677Z,6.70
2023-03-24T08:11:21.804Z,7.80
2023-03-24T08:13:53.028Z,7.30
2023-03-24T08:16:31.605Z,8.10
2023-03-24T08:19:03.353Z,7.80
2023-03-24T08:21:34.461Z,8.40
2023-03-24T08:24:11.083Z,7.90
2023-03-24T08:26:46.776Z,8.00
2023-03-24T08:29:17.975Z,7.10
2023-03-24T08:31:49.072Z,8.20
2023-03-24T08:34:20.429Z,7.60
2023-03-24T08:36:51.398Z,20.30
2023-03-24T08:39:24.386Z,8.70
2023-03-24T08:41:55.348Z,8.30
2023-03-24T08:44:26.610Z,8.10
2023-03-24T08:46:57.644Z,9.70
2023-03-24T08:49:28.679Z,10.10
2023-03-24T08:51:59.655Z,9.40
2023-03-24T08:54:30.783Z,9.90
2023-03-24T08:57:01.794Z,9.40
2023-03-24T08:59:34.038Z,8.10
2023-03-24T09:02:05.818Z,8.30
2023-03-24T09:04:36.813Z,8.80
2023-03-24T09:07:09.347Z,8.10
2023-03-24T09:09:40.885Z,8.40
2023-03-24T09:12:11.868Z,7.60
2023-03-24T09:14:42.989Z,8.70
2023-03-24T09:17:13.855Z,8.80
2023-03-24T09:19:44.917Z,8.10
2023-03-24T09:22:16.015Z,7.40
2023-03-24T09:24:49.321Z,7.10
2023-03-24T09:27:20.794Z,7.60
2023-03-24T09:29:54.001Z,8.40
2023-03-24T09:32:25.584Z,7.80
2023-03-24T09:34:56.643Z,7.80
2023-03-24T09:37:29.817Z,7.60
2023-03-24T09:40:01.594Z,7.10
2023-03-24T09:42:36.411Z,7.10
2023-03-24T09:45:13.542Z,7.90
2023-03-24T09:47:50.530Z,7.20
2023-03-24T09:50:25.567Z,8.00
2023-03-24T09:55:30.817Z,7.90
2023-03-24T09:58:08.498Z,6.50
2023-03-24T10:00:39.824Z,6.70
2023-03-24T10:03:21.170Z,7.30
2023-03-24T10:05:58.321Z,6.80
2023-03-24T10:08:35.714Z,7.70
2023-03-24T10:11:15.621Z,7.40
2023-03-24T10:14:03.161Z,7.80
2023-03-24T10:16:42.602Z,11.70
2023-03-24T10:19:28.072Z,6.90
2023-03-24T10:24:42.017Z,6.90
2023-03-24T10:27:19.826Z,7.50
2023-03-24T10:29:55.778Z,7.00
2023-03-24T10:32:31.027Z,7.20
2023-03-24T10:35:09.681Z,7.10
2023-03-24T10:37:41.525Z,6.80
2023-03-24T10:40:19.469Z,6.90
2023-03-24T10:43:07.889Z,7.10
2023-03-24T10:45:44.822Z,8.10
2023-03-24T10:48:17.321Z,6.90
2023-03-24T10:50:49.260Z,8.20
2023-03-24T10:53:22.254Z,8.20
2023-03-24T10:55:53.332Z,6.80
2023-03-24T10:58:36.796Z,7.10
2023-03-24T11:01:22.650Z,6.30
2023-03-24T11:03:54.077Z,6.40
2023-03-24T11:06:25.119Z,7.60
2023-03-24T11:12:07.049Z,5.80
2023-03-24T11:14:47.276Z,5.80
2023-03-24T11:17:21.906Z,6.30
2023-03-24T11:19:57.641Z,6.30
2023-03-24T11:22:29.217Z,5.80
2023-03-24T11:25:00.437Z,5.60
2023-03-24T11:27:31.829Z,6.30
2023-03-24T11:30:02.849Z,5.80
2023-03-24T11:32:33.943Z,5.90
2023-03-24T11:35:17.687Z,9.70
2023-03-24T11:37:49.976Z,5.80
2023-03-24T11:40:26.952Z,5.30
2023-03-24T11:43:01.586Z,5.90
2023-03-24T11:45:40.413Z,5.90
2023-03-24T11:48:26.842Z,6.20
2023-03-24T11:50:59.796Z,6.60
2023-03-24T11:53:40.346Z,6.80
2023-03-24T11:56:16.038Z,6.20
2023-03-24T11:58:50.378Z,5.60
2023-03-24T12:01:29.596Z,6.00
2023-03-24T12:04:19.835Z,6.90
2023-03-24T12:07:08.382Z,6.80
2023-03-24T12:09:45.427Z,6.00
2023-03-24T12:12:27.950Z,6.40
2023-03-24T12:15:28.706Z,7.10
2023-03-24T12:18:11.901Z,6.20
2023-03-24T12:20:51.911Z,5.10
2023-03-24T12:23:35.314Z,7.60
2023-03-24T12:26:22.206Z,7.20
2023-03-24T12:29:24.935Z,5.70
2023-03-24T12:32:09.049Z,4.90
2023-03-24T12:35:04.109Z,5.10
2023-03-24T12:37:45.845Z,5.60
2023-03-24T12:40:40.193Z,5.50
2023-03-24T12:43:23.644Z,4.30
2023-03-24T12:45:58.544Z,4.30
2023-03-24T12:49:08.295Z,5.40
2023-03-24T12:51:48.945Z,5.80
2023-03-24T12:54:32.794Z,4.00
2023-03-24T12:57:09.466Z,4.10
2023-03-24T12:59:44.888Z,3.70
2023-03-24T13:02:26.602Z,3.40
2023-03-24T13:05:05.407Z,3.70
2023-03-24T13:07:39.458Z,4.10
2023-03-24T13:10:22.172Z,3.90
2023-03-24T13:12:58.015Z,4.10
2023-03-24T13:15:36.005Z,3.70
2023-03-24T13:18:22.827Z,4.50
2023-03-24T13:20:57.577Z,3.90
2023-03-24T13:23:51.833Z,3.20
2023-03-24T13:26:38.546Z,3.50
2023-03-24T13:29:24.176Z,3.40
2023-03-24T13:31:59.840Z,3.20
2023-03-24T13:34:34.296Z,3.60
2023-03-24T13:37:08.138Z,3.70
2023-03-24T13:39:40.091Z,3.60
2023-03-24T13:42:33.194Z,3.60
2023-03-24T13:45:06.935Z,3.20
2023-03-24T13:47:57.801Z,3.50
2023-03-24T13:50:29.106Z,3.30
2023-03-24T13:53:12.664Z,3.40
2023-03-24T13:55:50.847Z,3.10
2023-03-24T13:58:24.387Z,3.60
2023-03-24T14:01:32.786Z,3.30
2023-03-24T14:04:45.208Z,3.40
2023-03-24T14:07:42.872Z,3.90
2023-03-24T14:13:25.101Z,2.90
2023-03-24T14:15:57.392Z,2.90
2023-03-24T14:19:09.011Z,3.00
2023-03-24T14:21:42.732Z,3.00
2023-03-24T14:24:24.229Z,3.70
2023-03-24T14:26:55.395Z,4.00
2023-03-24T14:29:52.531Z,2.50
2023-03-24T14:32:23.852Z,2.90
2023-03-24T14:35:00.326Z,3.10
2023-03-24T14:37:32.608Z,3.20
2023-03-24T14:40:04.043Z,3.00
2023-03-24T14:43:17.654Z,3.10
2023-03-24T14:46:06.992Z,3.50
2023-03-24T14:48:43.162Z,3.00
2023-03-24T14:51:36.626Z,3.10
2023-03-24T14:54:15.021Z,2.80
2023-03-24T14:56:52.100Z,3.60
2023-03-24T14:59:32.531Z,3.50
2023-03-24T15:02:13.428Z,3.30
2023-03-24T15:05:02.765Z,3.20
2023-03-24T15:07:34.196Z,3.10
2023-03-24T15:10:06.052Z,2.80
2023-03-24T15:12:37.584Z,3.20
2023-03-24T15:15:18.713Z,3.20
2023-03-24T15:17:51.999Z,3.20
2023-03-24T15:20:26.893Z,2.80
2023-03-24T15:23:08.974Z,3.20
2023-03-24T15:25:48.044Z,3.10
2023-03-24T15:28:23.857Z,3.60
2023-03-24T15:30:56.952Z,3.30
2023-03-24T15:33:32.763Z,3.20
2023-03-24T15:36:04.308Z,3.80
2023-03-24T15:38:37.638Z,3.30
2023-03-24T15:41:13.200Z,3.80
2023-03-24T15:43:54.449Z,3.90
2023-03-24T15:46:30.379Z,4.20
2023-03-24T15:49:04.263Z,4.10
2023-03-24T15:52:01.060Z,3.30
2023-03-24T15:54:41.354Z,3.40
2023-03-24T15:57:21.174Z,2.90
2023-03-24T15:59:58.231Z,3.10
2023-03-24T16:02:34.945Z,3.00
2023-03-24T16:05:14.696Z,3.40
2023-03-24T16:07:48.473Z,3.20
2023-03-24T16:10:40.458Z,3.50
2023-03-24T16:13:27.521Z,3.10
2023-03-24T16:16:03.771Z,4.80
2023-03-24T16:18:44.441Z,3.00
2023-03-24T16:21:18.037Z,3.70
2023-03-24T16:23:50.507Z,4.00
2023-03-24T16:26:25.344Z,3.00
2023-03-24T16:29:01.767Z,7.10
2023-03-24T16:31:35.878Z,4.20
2023-03-24T16:34:06.943Z,3.60
2023-03-24T16:36:38.122Z,4.40
2023-03-24T16:39:18.253Z,3.70
2023-03-24T16:41:50.078Z,4.30
2023-03-24T16:44:21.388Z,5.50
2023-03-24T16:46:55.106Z,4.40
2023-03-24T16:49:27.770Z,4.50
2023-03-24T16:52:00.562Z,4.00
2023-03-24T16:54:31.773Z,4.70
2023-03-24T16:57:03.572Z,4.50
2023-03-24T16:59:38.013Z,4.40
2023-03-24T17:02:13.279Z,4.20
2023-03-24T17:04:46.501Z,4.90
2023-03-24T17:07:20.415Z,5.10
2023-03-24T17:09:52.689Z,5.50
2023-03-24T17:12:23.700Z,5.10
2023-03-24T17:14:55.967Z,5.40
2023-03-24T17:17:29.989Z,5.00
2023-03-24T17:20:05.430Z,6.00
2023-03-24T17:22:37.989Z,5.80
2023-03-24T17:25:11.170Z,5.50
2023-03-24T17:27:42.433Z,6.30
2023-03-24T17:30:19.305Z,5.70
2023-03-24T17:32:59.798Z,6.50
2023-03-24T17:35:32.168Z,6.30
2023-03-24T17:38:03.858Z,6.40
2023-03-24T17:40:35.076Z,6.10
2023-03-24T17:43:11.446Z,6.80
2023-03-24T17:45:44.303Z,6.60
2023-03-24T17:48:15.971Z,7.70
2023-03-24T17:50:48.287Z,7.70
2023-03-24T17:53:26.354Z,7.30
2023-03-24T17:55:59.381Z,8.20
2023-03-24T17:58:30.986Z,8.20
2023-03-24T18:01:07.905Z,7.90
2023-03-24T18:03:40.741Z,7.20
2023-03-24T18:06:15.750Z,7.40
2023-03-24T18:08:50.630Z,7.60
2023-03-24T18:11:22.049Z,7.80
2023-03-24T18:13:53.482Z,10.40
2023-03-24T18:16:26.767Z,8.50
2023-03-24T18:18:58.421Z,9.50
2023-03-24T18:21:29.950Z,7.70
2023-03-24T18:24:01.301Z,9.40
2023-03-24T18:26:33.991Z,8.30
2023-03-24T18:29:07.032Z,7.80
2023-03-24T18:31:39.410Z,8.60
2023-03-24T18:34:10.710Z,7.90
2023-03-24T18:36:43.510Z,8.30
2023-03-24T18:39:14.897Z,7.50
2023-03-24T18:41:48.119Z,7.30
2023-03-24T18:44:19.323Z,7.40
2023-03-24T18:46:50.792Z,6.90
2023-03-24T18:49:21.842Z,7.00
2023-03-24T18:51:53.185Z,7.00
2023-03-24T18:54:24.438Z,6.30
2023-03-24T18:56:56.232Z,8.00
2023-03-24T18:59:28.198Z,11.70
2023-03-24T19:02:00.498Z,6.40
2023-03-24T19:04:33.061Z,5.40
2023-03-24T19:07:10.576Z,5.20
2023-03-24T19:09:42.256Z,5.50
2023-03-24T19:12:17.110Z,5.10
2023-03-24T19:14:56.824Z,5.00
2023-03-24T19:17:28.960Z,4.90
2023-03-24T19:20:05.357Z,4.70
2023-03-24T19:23:12.980Z,5.60
2023-03-24T19:25:57.194Z,6.00
2023-03-24T19:28:31.036Z,6.10
2023-03-24T19:34:14.082Z,6.20
2023-03-24T19:36:51.773Z,6.30
2023-03-24T19:40:15.821Z,5.90
2023-03-24T19:42:51.780Z,7.10
2023-03-24T19:46:03.895Z,6.60
2023-03-24T19:48:54.456Z,6.60
2023-03-24T19:51:43.785Z,6.80
2023-03-24T19:54:29.364Z,7.50
2023-03-24T19:57:21.947Z,7.30
2023-03-24T20:00:26.543Z,8.20
2023-03-24T20:03:01.925Z,8.20
2023-03-24T20:05:37.342Z,8.10
2023-03-24T20:08:16.367Z,8.10
2023-03-24T20:10:55.034Z,8.70
2023-03-24T20:13:38.487Z,8.50
2023-03-24T20:16:19.761Z,9.20
2023-03-24T20:18:58.426Z,10.10
2023-03-24T20:21:34.374Z,9.40
2023-03-24T20:24:15.213Z,10.10
2023-03-24T20:26:57.684Z,10.10
2023-03-24T20:29:28.836Z,10.20
2023-03-24T20:32:07.151Z,10.00
2023-03-24T20:34:41.049Z,10.00
2023-03-24T20:37:13.092Z,9.20
2023-03-24T20:39:46.743Z,8.90
2023-03-24T20:42:31.186Z,8.90
2023-03-24T20:45:05.185Z,8.30
2023-03-24T20:47:37.180Z,9.10
2023-03-24T20:50:10.138Z,10.20
2023-03-24T20:52:41.593Z,9.60
2023-03-24T20:55:13.574Z,9.80
2023-03-24T20:57:44.576Z,9.10
2023-03-24T21:00:20.498Z,9.90
2023-03-24T21:02:52.579Z,8.90
2023-03-24T21:05:23.728Z,8.90
2023-03-24T21:07:54.637Z,9.00
2023-03-24T21:10:26.011Z,9.10
2023-03-24T21:12:57.565Z,8.10
2023-03-24T21:15:29.025Z,8.00
2023-03-24T21:18:00.808Z,7.20
2023-03-24T21:20:31.828Z,6.70
2023-03-24T21:23:04.609Z,6.30
2023-03-24T21:25:36.065Z,5.80
2023-03-24T21:28:07.251Z,4.90
2023-03-24T21:30:39.666Z,5.00
2023-03-24T21:33:11.440Z,4.50
2023-03-24T21:35:42.405Z,4.90
2023-03-24T21:38:16.026Z,4.90
2023-03-24T21:40:47.042Z,4.60
2023-03-24T21:43:18.075Z,4.30
2023-03-24T21:45:54.017Z,4.70
2023-03-24T21:48:26.422Z,4.20
2023-03-24T21:50:58.893Z,5.20
2023-03-24T21:53:30.009Z,4.90
2023-03-24T21:56:04.780Z,5.40
2023-03-24T21:58:36.059Z,4.90
2023-03-24T22:01:07.297Z,5.90
2023-03-24T22:03:38.392Z,5.20
2023-03-24T22:06:13.020Z,5.70
2023-03-24T22:08:44.702Z,5.60
2023-03-24T22:11:18.779Z,6.10
2023-03-24T22:13:49.912Z,5.30
2023-03-24T22:16:21.105Z,6.80
2023-03-24T22:18:53.157Z,5.50
2023-03-24T22:21:24.022Z,5.80
2023-03-24T22:23:54.952Z,5.60
2023-03-24T22:26:25.918Z,5.90
2023-03-24T22:28:58.507Z,5.50
2023-03-24T22:31:29.453Z,6.10
2023-03-24T22:34:00.409Z,6.30
2023-03-24T22:36:31.523Z,5.50
2023-03-24T22:39:02.389Z,6.40
2023-03-24T22:41:33.416Z,6.00
2023-03-24T22:44:04.648Z,6.40
2023-03-24T22:46:35.707Z,7.30
2023-03-24T22:49:07.040Z,6.20
2023-03-24T22:51:38.089Z,6.60
2023-03-24T22:54:09.101Z,6.40
2023-03-24T22:56:40.382Z,6.70
2023-03-24T22:59:11.695Z,6.70
2023-03-24T23:01:42.944Z,5.70
2023-03-24T23:04:14.784Z,6.50
2023-03-24T23:06:46.939Z,6.30
2023-03-24T23:09:18.201Z,6.40
2023-03-24T23:11:49.087Z,6.50
2023-03-24T23:14:19.976Z,5.90
2023-03-24T23:16:50.885Z,5.10
2023-03-24T23:19:22.132Z,5.40
2023-03-24T23:21:53.065Z,5.50
2023-03-24T23:24:24.098Z,5.40
2023-03-24T23:26:55.098Z,5.20
2023-03-24T23:29:26.318Z,5.10
2023-03-24T23:31:57.279Z,5.60
2023-03-24T23:34:28.895Z,5.30
2023-03-24T23:37:03.719Z,5.40
2023-03-24T23:39:36.904Z,5.30
2023-03-24T23:42:08.086Z,4.90
2023-03-24T23:44:39.718Z,5.90
2023-03-24T23:47:10.629Z,5.40
2023-03-24T23:49:43.953Z,4.90
2023-03-24T23:52:15.064Z,5.10
2023-03-24T23:54:46.668Z,5.30
2023-03-24T23:57:18.309Z,5.40
2023-03-24T23:59:49.675Z,5.30
